Terminal Aerodrome Forecast
Issued by NWS

Home | Current Version | Previous Version | Text Only | Print | Product List | Glossary On
Versions: 1 2 3 4 5 6 7 8 9 10 11 12 13 14 15 16 17
000
FTUS43 KILX 110539
TAFDEC
TAF
KDEC 110539Z 1106/1206 14015KT P6SM OVC045
     FM111400 17012KT P6SM VCSH OVC040
     FM111600 18014G22KT 4SM -RAPL BR OVC025
     FM111800 19014G22KT 3SM -RA BR SCT006 OVC015
     FM120300 22010KT 3SM -RA BR OVC004=

USA.gov is the U.S. government's official web portal to all federal, state and local government web resources and services.